Time;durP1;ratioP1;P1;durP2;ratioP2;P2;SDS_P1;SDS_P2;PMS_P1;PMS_P2;Temp;Humidity;BMP_temperature;BMP_pressure;BME280_temperature;BME280_humidity;BME280_pressure;Samples;Min_cycle;Max_cycle;Signal;HPM_P1;HPM_P2
2022/08/11 00:01:20;;;;;;;4.65;1.15;;;;;;;;;;4961634;28;20034;-83
2022/08/11 00:03:49;;;;;;;3.55;1.73;;;;;;;;;;4932585;28;20065;-83
2022/08/11 00:06:23;;;;;;;7.20;1.42;;;;;;;;;;4948802;28;20043;-83
2022/08/11 00:08:49;;;;;;;2.97;1.10;;;;;;;;;;4934324;28;20045;-83
2022/08/11 00:11:16;;;;;;;3.47;1.40;;;;;;;;;;4947626;28;20562;-83
2022/08/11 00:13:44;;;;;;;3.85;1.10;;;;;;;;;;4935274;28;20050;-82
2022/08/11 00:16:23;;;;;;;2.15;0.98;;;;;;;;;;4932439;28;20039;-84
2022/08/11 00:18:51;;;;;;;3.47;1.27;;;;;;;;;;4950186;28;20039;-83
2022/08/11 00:21:18;;;;;;;4.65;1.75;;;;;;;;;;4948576;28;20588;-84
2022/08/11 00:23:52;;;;;;;4.50;1.05;;;;;;;;;;4933828;28;20050;-84
2022/08/11 00:26:18;;;;;;;6.55;1.23;;;;;;;;;;4947997;28;20066;-84
2022/08/11 00:28:43;;;;;;;3.22;1.30;;;;;;;;;;4934647;28;20403;-84
2022/08/11 00:31:21;;;;;;;2.53;1.02;;;;;;;;;;4947746;28;20035;-84
2022/08/11 00:33:48;;;;;;;2.58;1.17;;;;;;;;;;5024021;28;20540;-84
2022/08/11 00:36:16;;;;;;;4.53;1.27;;;;;;;;;;5001366;28;20400;-84
2022/08/11 00:38:44;;;;;;;2.85;1.30;;;;;;;;;;5012175;28;20591;-84
2022/08/11 00:41:51;;;;;;;2.80;1.15;;;;;;;;;;5011134;28;20040;-84
2022/08/11 00:44:31;;;;;;;4.00;1.10;;;;;;;;;;5043251;28;20036;-84
2022/08/11 00:47:27;;;;;;;3.95;1.50;;;;;;;;;;5023876;28;20041;-84
2022/08/11 00:50:05;;;;;;;4.78;1.10;;;;;;;;;;5026794;28;20052;-84
2022/08/11 00:52:54;;;;;;;2.28;1.05;;;;;;;;;;5026466;28;20033;-84
2022/08/11 00:56:02;;;;;;;2.65;0.95;;;;;;;;;;5009954;28;20128;-85
2022/08/11 00:58:55;;;;;;;3.75;1.15;;;;;;;;;;5025970;28;20048;-84
2022/08/11 01:01:46;;;;;;;2.30;1.17;;;;;;;;;;5026577;28;20433;-84
2022/08/11 01:04:36;;;;;;;3.67;1.17;;;;;;;;;;5013186;28;20518;-86
2022/08/11 01:07:39;;;;;;;2.50;1.00;;;;;;;;;;5024986;28;20041;-84
2022/08/11 01:10:20;;;;;;;2.38;1.20;;;;;;;;;;4986519;28;20041;-84
2022/08/11 01:13:22;;;;;;;2.90;1.20;;;;;;;;;;5027145;28;20041;-84
2022/08/11 01:16:10;;;;;;;3.08;1.20;;;;;;;;;;5025854;28;20044;-84
2022/08/11 01:19:15;;;;;;;2.50;1.20;;;;;;;;;;5026787;28;20560;-84
2022/08/11 01:22:02;;;;;;;3.75;1.02;;;;;;;;;;5018476;28;20474;-83
2022/08/11 01:24:52;;;;;;;2.72;1.30;;;;;;;;;;5026595;28;20033;-83
2022/08/11 01:27:29;;;;;;;6.10;1.25;;;;;;;;;;5025467;28;20076;-84
2022/08/11 01:30:38;;;;;;;2.97;1.20;;;;;;;;;;5042487;28;20045;-83
2022/08/11 01:33:48;;;;;;;2.47;1.20;;;;;;;;;;5041588;28;20504;-83
2022/08/11 01:36:51;;;;;;;3.63;1.00;;;;;;;;;;5009483;28;20060;-83
2022/08/11 01:39:37;;;;;;;3.28;1.60;;;;;;;;;;4995962;28;20026;-84
2022/08/11 01:45:28;;;;;;;4.43;1.35;;;;;;;;;;5038120;28;20144;-84
2022/08/11 01:48:14;;;;;;;3.40;1.15;;;;;;;;;;5024798;28;20067;-84
2022/08/11 01:50:57;;;;;;;3.72;1.67;;;;;;;;;;5026851;28;20041;-83
2022/08/11 01:53:32;;;;;;;3.22;1.20;;;;;;;;;;5024954;28;20908;-84
2022/08/11 01:56:28;;;;;;;3.75;1.40;;;;;;;;;;5040835;28;20033;-84
2022/08/11 01:59:07;;;;;;;2.72;1.30;;;;;;;;;;5026353;28;20040;-84
2022/08/11 02:01:35;;;;;;;4.28;1.27;;;;;;;;;;5004177;28;20044;-84
2022/08/11 02:04:25;;;;;;;3.15;1.30;;;;;;;;;;5027378;28;20045;-84
2022/08/11 02:07:09;;;;;;;3.13;1.20;;;;;;;;;;5011508;28;20041;-83
2022/08/11 02:09:41;;;;;;;3.00;1.30;;;;;;;;;;5024728;28;20678;-83
2022/08/11 02:12:34;;;;;;;2.80;1.20;;;;;;;;;;5026199;28;20033;-84
2022/08/11 02:15:25;;;;;;;5.07;1.40;;;;;;;;;;5017670;28;20072;-83
2022/08/11 02:18:10;;;;;;;3.00;1.23;;;;;;;;;;5025100;28;20029;-84
2022/08/11 02:23:54;;;;;;;2.70;1.10;;;;;;;;;;5028544;28;20072;-84
2022/08/11 02:26:35;;;;;;;2.30;1.20;;;;;;;;;;5007023;28;20044;-83
2022/08/11 02:29:24;;;;;;;4.32;1.70;;;;;;;;;;5013289;28;20556;-84
2022/08/11 02:35:00;;;;;;;3.17;1.50;;;;;;;;;;5046419;28;20052;-84
2022/08/11 02:37:39;;;;;;;2.88;1.40;;;;;;;;;;5012469;28;20041;-84
2022/08/11 02:40:30;;;;;;;2.83;1.40;;;;;;;;;;5012960;28;20091;-84
2022/08/11 02:43:10;;;;;;;3.78;1.55;;;;;;;;;;5044406;28;20055;-84
2022/08/11 02:45:55;;;;;;;3.58;1.45;;;;;;;;;;5021362;28;20037;-84
2022/08/11 02:52:01;;;;;;;3.28;1.40;;;;;;;;;;5044470;28;20094;-83
2022/08/11 02:54:35;;;;;;;4.22;1.30;;;;;;;;;;4938545;28;20054;-84
2022/08/11 02:57:05;;;;;;;2.80;1.33;;;;;;;;;;5009867;28;20045;-83
2022/08/11 02:59:52;;;;;;;3.50;1.73;;;;;;;;;;5013023;28;20516;-83
2022/08/11 03:02:36;;;;;;;2.92;1.30;;;;;;;;;;5044595;28;20034;-83
2022/08/11 03:05:02;;;;;;;6.45;1.40;;;;;;;;;;5045820;28;20373;-83
2022/08/11 03:07:46;;;;;;;3.70;1.60;;;;;;;;;;5045913;28;20040;-83
2022/08/11 03:10:31;;;;;;;3.83;1.73;;;;;;;;;;5011851;28;20037;-83
2022/08/11 03:19:01;;;;;;;3.75;1.58;;;;;;;;;;5045893;28;20127;-84
2022/08/11 03:21:32;;;;;;;3.72;1.70;;;;;;;;;;5026644;28;20048;-83
2022/08/11 03:24:02;;;;;;;5.10;1.60;;;;;;;;;;5029516;28;20384;-83
2022/08/11 03:26:32;;;;;;;3.80;1.55;;;;;;;;;;5027503;28;20048;-83
2022/08/11 03:29:07;;;;;;;4.05;1.50;;;;;;;;;;5013392;28;20040;-84
2022/08/11 03:31:43;;;;;;;4.60;1.48;;;;;;;;;;5007871;28;20403;-85
2022/08/11 03:34:13;;;;;;;3.63;1.55;;;;;;;;;;5010336;28;20464;-84
2022/08/11 03:36:45;;;;;;;5.38;1.90;;;;;;;;;;5007809;28;20045;-84
2022/08/11 03:39:21;;;;;;;3.60;1.70;;;;;;;;;;5046510;28;20083;-84
2022/08/11 03:42:09;;;;;;;4.43;1.52;;;;;;;;;;5011410;28;20465;-84
2022/08/11 03:44:59;;;;;;;7.70;1.80;;;;;;;;;;5027317;28;20033;-84
2022/08/11 03:47:43;;;;;;;4.50;1.70;;;;;;;;;;5017405;28;20029;-84
2022/08/11 03:50:38;;;;;;;3.90;1.73;;;;;;;;;;5011665;28;20047;-84
2022/08/11 03:53:29;;;;;;;3.47;1.70;;;;;;;;;;5020120;28;20056;-83
2022/08/11 03:56:25;;;;;;;4.15;1.98;;;;;;;;;;5003219;28;20550;-84
2022/08/11 03:59:11;;;;;;;4.20;1.88;;;;;;;;;;5029107;28;20060;-84
2022/08/11 04:01:45;;;;;;;3.58;1.60;;;;;;;;;;5042648;28;20060;-84
2022/08/11 04:04:28;;;;;;;4.72;2.10;;;;;;;;;;5028290;28;20428;-84
2022/08/11 04:07:15;;;;;;;3.25;1.73;;;;;;;;;;5027763;28;20047;-83
2022/08/11 04:09:49;;;;;;;4.72;2.33;;;;;;;;;;5046237;28;20045;-84
2022/08/11 04:12:34;;;;;;;4.75;2.10;;;;;;;;;;5027966;28;20040;-83
2022/08/11 04:18:39;;;;;;;3.47;1.67;;;;;;;;;;5041264;28;21078;-83
2022/08/11 04:21:20;;;;;;;4.47;2.05;;;;;;;;;;5027550;28;20047;-83
2022/08/11 04:24:23;;;;;;;4.65;2.10;;;;;;;;;;5027778;28;20127;-83
2022/08/11 04:27:16;;;;;;;5.65;2.10;;;;;;;;;;5027265;28;20445;-83
2022/08/11 04:30:00;;;;;;;4.03;2.15;;;;;;;;;;5043940;28;20170;-84
2022/08/11 04:32:57;;;;;;;4.40;2.05;;;;;;;;;;5026462;28;20505;-84
2022/08/11 04:36:09;;;;;;;4.30;1.90;;;;;;;;;;5018520;28;20040;-83
2022/08/11 04:38:45;;;;;;;4.78;2.00;;;;;;;;;;4943322;28;20039;-83
2022/08/11 04:43:19;;;;;;;5.10;1.92;;;;;;;;;;5005590;28;20064;-84
2022/08/11 04:45:09;;;;;;;4.28;1.92;;;;;;;;;;5039133;28;20116;-83
2022/08/11 05:02:24;;;;;;;4.82;2.33;;;;;;;;;;5026974;28;20051;-83
2022/08/11 05:08:00;;;;;;;4.25;2.22;;;;;;;;;;5043235;28;20047;-83
2022/08/11 05:10:41;;;;;;;5.78;2.60;;;;;;;;;;5024679;28;20051;-83
2022/08/11 05:35:44;;;;;;;6.90;2.80;;;;;;;;;;5027828;28;20476;-82
2022/08/11 05:57:46;;;;;;;8.23;2.70;;;;;;;;;;5024606;28;20526;-83
2022/08/11 06:00:13;;;;;;;4.30;2.70;;;;;;;;;;5009565;28;20041;-82
2022/08/11 06:02:40;;;;;;;7.30;2.97;;;;;;;;;;5045565;28;20033;-85
2022/08/11 06:05:06;;;;;;;6.68;2.72;;;;;;;;;;5028743;28;20044;-84
2022/08/11 06:07:32;;;;;;;6.68;2.80;;;;;;;;;;5028456;28;20033;-81
2022/08/11 06:09:58;;;;;;;7.40;3.20;;;;;;;;;;5012419;28;20045;-83
2022/08/11 06:12:36;;;;;;;5.78;3.10;;;;;;;;;;5012327;28;20039;-83
2022/08/11 06:15:07;;;;;;;6.82;2.65;;;;;;;;;;5011798;28;20040;-83
2022/08/11 06:17:35;;;;;;;6.85;2.50;;;;;;;;;;5013610;28;20080;-84
2022/08/11 06:20:04;;;;;;;5.82;2.80;;;;;;;;;;5013057;28;20492;-83
2022/08/11 06:22:30;;;;;;;9.55;2.53;;;;;;;;;;5029068;28;20037;-83
2022/08/11 06:24:57;;;;;;;4.80;2.60;;;;;;;;;;5029932;28;20284;-83
2022/08/11 06:27:25;;;;;;;5.32;2.60;;;;;;;;;;5004306;28;20141;-84
2022/08/11 06:29:52;;;;;;;4.95;2.40;;;;;;;;;;5017556;28;20653;-83
2022/08/11 06:32:19;;;;;;;3.83;2.50;;;;;;;;;;5012911;28;20033;-83
2022/08/11 06:35:21;;;;;;;5.18;2.25;;;;;;;;;;5013774;28;20524;-84
2022/08/11 06:37:55;;;;;;;5.78;2.72;;;;;;;;;;5020818;28;20580;-83
2022/08/11 06:43:50;;;;;;;8.18;2.47;;;;;;;;;;5046129;28;20094;-83
2022/08/11 06:46:25;;;;;;;6.53;2.28;;;;;;;;;;5008798;28;20036;-84
2022/08/11 06:48:52;;;;;;;5.18;2.40;;;;;;;;;;5011369;28;20033;-84
2022/08/11 06:51:18;;;;;;;5.35;2.20;;;;;;;;;;5003877;28;20045;-83
2022/08/11 06:53:44;;;;;;;5.38;2.45;;;;;;;;;;5028548;28;20044;-83
2022/08/11 07:01:54;;;;;;;4.97;2.10;;;;;;;;;;5028569;28;20068;-82
2022/08/11 07:04:31;;;;;;;8.07;2.47;;;;;;;;;;5020859;28;20036;-82
2022/08/11 07:16:15;;;;;;;8.27;2.58;;;;;;;;;;5030084;28;20170;-83
2022/08/11 07:29:52;;;;;;;4.28;2.33;;;;;;;;;;5023120;28;20047;-82
2022/08/11 07:32:47;;;;;;;3.88;2.17;;;;;;;;;;5038103;28;20402;-82
2022/08/11 07:35:16;;;;;;;3.83;1.63;;;;;;;;;;5004851;28;20037;-81
2022/08/11 07:37:44;;;;;;;3.67;1.92;;;;;;;;;;5012804;28;20037;-83
2022/08/11 07:40:10;;;;;;;5.00;1.80;;;;;;;;;;5007975;28;20036;-83
2022/08/11 07:42:36;;;;;;;4.20;1.90;;;;;;;;;;5003902;28;20028;-83
2022/08/11 07:53:24;;;;;;;5.25;1.73;;;;;;;;;;5030370;28;20048;-83
2022/08/11 07:55:52;;;;;;;5.72;1.75;;;;;;;;;;5010181;28;20037;-84
2022/08/11 08:17:51;;;;;;;6.88;1.80;;;;;;;;;;5029096;28;20127;-84
2022/08/11 08:20:19;;;;;;;4.28;1.73;;;;;;;;;;5026315;28;20033;-84
2022/08/11 08:22:49;;;;;;;5.93;1.60;;;;;;;;;;5007619;28;20041;-84
2022/08/11 08:25:16;;;;;;;3.88;1.60;;;;;;;;;;5007228;28;20033;-84
2022/08/11 08:27:45;;;;;;;4.35;1.50;;;;;;;;;;5008530;28;20037;-83
2022/08/11 08:32:57;;;;;;;5.50;1.50;;;;;;;;;;5023953;28;20124;-85
2022/08/11 08:35:23;;;;;;;3.20;1.35;;;;;;;;;;5008621;28;20038;-84
2022/08/11 08:37:50;;;;;;;5.78;1.63;;;;;;;;;;4992813;28;20029;-83
2022/08/11 08:40:16;;;;;;;4.38;1.38;;;;;;;;;;5006823;28;20484;-84
2022/08/11 08:42:50;;;;;;;3.28;1.40;;;;;;;;;;5006206;28;20056;-84
2022/08/11 08:45:17;;;;;;;3.72;1.40;;;;;;;;;;4998614;28;20994;-83
2022/08/11 08:47:46;;;;;;;2.92;1.38;;;;;;;;;;5007427;28;20059;-83
2022/08/11 08:50:14;;;;;;;2.67;1.30;;;;;;;;;;5021777;28;20038;-84
2022/08/11 08:52:46;;;;;;;4.60;1.10;;;;;;;;;;5023390;28;20041;-90
2022/08/11 08:55:17;;;;;;;3.60;1.67;;;;;;;;;;5023159;28;20121;-86
2022/08/11 08:57:43;;;;;;;5.90;1.23;;;;;;;;;;5005694;28;20029;-86
2022/08/11 09:00:12;;;;;;;2.65;1.02;;;;;;;;;;5007434;28;20470;-87
2022/08/11 09:02:38;;;;;;;3.70;1.27;;;;;;;;;;4989085;28;20041;-87
2022/08/11 09:05:20;;;;;;;2.03;0.90;;;;;;;;;;4999857;28;20059;-86
2022/08/11 09:07:53;;;;;;;4.20;1.13;;;;;;;;;;5007056;28;20048;-93
2022/08/11 09:10:19;;;;;;;5.32;1.55;;;;;;;;;;5006819;28;20037;-87
2022/08/11 09:12:45;;;;;;;4.97;1.10;;;;;;;;;;5003300;28;20033;-86
2022/08/11 09:15:11;;;;;;;2.53;1.00;;;;;;;;;;4998560;28;20590;-86
2022/08/11 09:17:45;;;;;;;2.70;1.10;;;;;;;;;;5013004;28;20681;-89
2022/08/11 09:28:52;;;;;;;6.82;1.40;;;;;;;;;;4983416;28;20539;-89
2022/08/11 09:35:16;;;;;;;4.30;1.02;;;;;;;;;;4965808;28;20036;-88
2022/08/11 09:40:28;;;;;;;4.80;1.25;;;;;;;;;;5005460;28;20040;-87
2022/08/11 09:45:45;;;;;;;3.25;1.10;;;;;;;;;;5004712;28;20417;-87
2022/08/11 09:48:11;;;;;;;2.20;1.00;;;;;;;;;;4976355;28;20054;-87
2022/08/11 09:50:38;;;;;;;4.53;1.10;;;;;;;;;;4990577;28;20116;-88
2022/08/11 09:53:04;;;;;;;2.83;0.80;;;;;;;;;;4980287;28;20516;-87
2022/08/11 09:55:44;;;;;;;2.80;1.27;;;;;;;;;;5005582;28;20425;-87
2022/08/11 09:58:26;;;;;;;2.67;1.00;;;;;;;;;;4995023;28;20033;-89
2022/08/11 10:00:56;;;;;;;3.92;1.08;;;;;;;;;;4988580;28;20440;-86
2022/08/11 10:03:24;;;;;;;2.67;0.90;;;;;;;;;;4994319;28;20044;-91
2022/08/11 10:08:43;;;;;;;3.35;1.05;;;;;;;;;;4987699;28;20045;-87
2022/08/11 10:11:19;;;;;;;;;;;;;;;;;;4990731;28;20160;-89
2022/08/11 10:16:34;;;;;;;1.90;0.95;;;;;;;;;;4993689;28;20063;-92
2022/08/11 10:19:02;;;;;;;2.92;0.95;;;;;;;;;;4966979;28;20030;-86
2022/08/11 10:21:41;;;;;;;2.03;0.90;;;;;;;;;;4987942;28;20030;-87
2022/08/11 10:27:14;;;;;;;2.65;1.10;;;;;;;;;;5006774;28;20103;-88
2022/08/11 10:35:28;;;;;;;1.95;0.90;;;;;;;;;;4991684;28;20461;-89
2022/08/11 10:38:04;;;;;;;2.92;0.90;;;;;;;;;;4994928;28;20552;-85
2022/08/11 10:40:31;;;;;;;2.30;0.90;;;;;;;;;;4987670;28;20061;-86
2022/08/11 10:43:01;;;;;;;1.80;0.98;;;;;;;;;;4990377;28;20080;-86
2022/08/11 10:48:41;;;;;;;;;;;;;;;;;;5009455;28;20040;-90
2022/08/11 10:51:12;;;;;;;2.42;0.98;;;;;;;;;;4965742;28;20458;-96
2022/08/11 10:59:22;;;;;;;1.95;0.85;;;;;;;;;;5012496;28;20653;-87
2022/08/11 11:01:48;;;;;;;4.50;1.08;;;;;;;;;;5016597;28;20033;-87
2022/08/11 11:04:15;;;;;;;2.85;0.95;;;;;;;;;;4994104;28;20185;-87
2022/08/11 11:06:58;;;;;;;4.30;1.05;;;;;;;;;;5026925;28;20033;-87
2022/08/11 11:09:31;;;;;;;5.45;1.05;;;;;;;;;;4977108;28;20058;-87
2022/08/11 11:17:56;;;;;;;2.03;0.95;;;;;;;;;;5009262;28;20448;-87
2022/08/11 11:20:25;;;;;;;3.55;0.95;;;;;;;;;;4992052;28;20044;-86
2022/08/11 11:22:53;;;;;;;2.08;0.82;;;;;;;;;;4994689;28;20037;-89
2022/08/11 11:25:24;;;;;;;3.97;0.90;;;;;;;;;;5023262;28;20037;-90
2022/08/11 11:28:11;;;;;;;2.78;0.95;;;;;;;;;;4993276;28;20405;-90
2022/08/11 11:31:10;;;;;;;3.83;1.10;;;;;;;;;;5026720;28;20029;-87
2022/08/11 11:34:06;;;;;;;2.25;1.00;;;;;;;;;;4984533;28;20406;-93
2022/08/11 11:36:46;;;;;;;3.35;1.15;;;;;;;;;;5002662;28;20088;-86
2022/08/11 11:39:12;;;;;;;2.47;1.08;;;;;;;;;;5007332;28;20034;-87
2022/08/11 11:41:38;;;;;;;3.22;1.20;;;;;;;;;;5024002;28;20088;-88
2022/08/11 11:44:04;;;;;;;2.17;0.97;;;;;;;;;;5009038;28;20057;-92
2022/08/11 11:46:30;;;;;;;2.10;1.00;;;;;;;;;;5008337;28;20031;-88
2022/08/11 11:48:57;;;;;;;3.67;1.33;;;;;;;;;;5022163;28;20494;-88
2022/08/11 11:51:23;;;;;;;3.88;1.10;;;;;;;;;;5008871;28;20029;-86
2022/08/11 11:53:50;;;;;;;4.50;1.10;;;;;;;;;;5008548;28;20037;-86
2022/08/11 11:56:16;;;;;;;2.45;1.05;;;;;;;;;;5007001;28;20712;-87
2022/08/11 12:01:26;;;;;;;2.60;1.08;;;;;;;;;;5009538;28;20044;-86
2022/08/11 12:03:53;;;;;;;3.30;1.20;;;;;;;;;;5020453;28;20444;-86
2022/08/11 12:06:22;;;;;;;2.97;1.30;;;;;;;;;;5005915;28;20034;-87
2022/08/11 12:08:50;;;;;;;3.20;1.10;;;;;;;;;;5008191;28;20052;-86
2022/08/11 12:14:03;;;;;;;2.58;1.20;;;;;;;;;;5017053;28;20041;-86
2022/08/11 12:16:28;;;;;;;2.75;1.23;;;;;;;;;;4985959;28;20069;-86
2022/08/11 12:18:57;;;;;;;2.97;1.30;;;;;;;;;;5007410;28;20530;-85
2022/08/11 12:21:23;;;;;;;4.13;1.30;;;;;;;;;;5024463;28;20037;-85
2022/08/11 12:29:10;;;;;;;3.35;1.55;;;;;;;;;;5018509;28;20037;-86
2022/08/11 12:31:40;;;;;;;2.70;1.38;;;;;;;;;;5007753;28;20508;-86
2022/08/11 12:34:08;;;;;;;3.20;1.40;;;;;;;;;;5011400;28;20048;-89
2022/08/11 12:36:51;;;;;;;4.05;1.65;;;;;;;;;;5003919;28;20122;-89
2022/08/11 12:45:26;;;;;;;3.95;1.38;;;;;;;;;;5026541;28;20484;-90
2022/08/11 12:51:55;;;;;;;3.47;1.63;;;;;;;;;;5032142;28;20047;-92
2022/08/11 12:53:06;;;;;;;5.90;1.73;;;;;;;;;;5032315;28;20545;-92
2022/08/11 12:58:16;;;;;;;3.47;1.73;;;;;;;;;;5026496;28;20043;-90
2022/08/11 13:06:11;;;;;;;3.33;1.50;;;;;;;;;;5024596;28;20091;-89
2022/08/11 13:08:37;;;;;;;4.72;1.50;;;;;;;;;;5010070;28;20041;-88
2022/08/11 13:13:49;;;;;;;3.50;1.60;;;;;;;;;;5022359;28;20040;-90
2022/08/11 13:16:15;;;;;;;3.15;1.52;;;;;;;;;;5031012;28;20404;-87
2022/08/11 13:18:41;;;;;;;8.95;1.75;;;;;;;;;;5002803;28;20473;-89
2022/08/11 13:21:09;;;;;;;3.10;1.50;;;;;;;;;;5007687;28;20040;-92
2022/08/11 13:23:37;;;;;;;3.60;1.30;;;;;;;;;;5028913;28;20276;-90
2022/08/11 13:26:04;;;;;;;5.18;1.52;;;;;;;;;;5025086;28;20051;-91
2022/08/11 13:28:31;;;;;;;3.65;1.40;;;;;;;;;;5029567;28;20056;-91
2022/08/11 13:31:13;;;;;;;2.75;1.35;;;;;;;;;;5010344;28;20033;-92
2022/08/11 13:33:44;;;;;;;3.35;1.60;;;;;;;;;;5001269;28;20049;-93
2022/08/11 13:36:11;;;;;;;4.05;1.73;;;;;;;;;;5016397;28;20060;-89
2022/08/11 13:38:43;;;;;;;3.92;1.60;;;;;;;;;;5009830;28;20036;-89
2022/08/11 13:43:54;;;;;;;3.00;1.40;;;;;;;;;;5027474;28;20646;-91
2022/08/11 13:46:21;;;;;;;3.58;1.30;;;;;;;;;;5010497;28;20033;-90
2022/08/11 13:48:51;;;;;;;5.43;1.40;;;;;;;;;;4995065;28;20044;-91
2022/08/11 13:51:33;;;;;;;4.75;1.42;;;;;;;;;;5025043;28;20499;-91
2022/08/11 13:54:01;;;;;;;5.20;1.42;;;;;;;;;;5011515;28;20059;-88
2022/08/11 13:56:28;;;;;;;2.75;1.40;;;;;;;;;;5025621;28;20037;-89
2022/08/11 13:58:54;;;;;;;2.23;1.20;;;;;;;;;;5010222;28;20082;-90
2022/08/11 14:01:20;;;;;;;3.97;1.23;;;;;;;;;;5024915;28;20270;-90
2022/08/11 14:03:46;;;;;;;5.82;2.00;;;;;;;;;;5009800;28;20283;-90
2022/08/11 14:06:12;;;;;;;2.53;1.20;;;;;;;;;;5009895;28;20094;-93
2022/08/11 14:08:38;;;;;;;3.50;1.30;;;;;;;;;;5023675;28;21307;-87
2022/08/11 14:13:51;;;;;;;4.55;1.40;;;;;;;;;;5023269;28;20060;-90
2022/08/11 14:16:28;;;;;;;4.00;1.20;;;;;;;;;;5012691;28;20026;-90
2022/08/11 14:18:59;;;;;;;2.92;1.13;;;;;;;;;;5038324;28;20032;-93
2022/08/11 14:24:10;;;;;;;3.10;1.10;;;;;;;;;;5016434;28;20132;-89
2022/08/11 14:26:38;;;;;;;4.72;1.52;;;;;;;;;;5012157;28;20093;-93
2022/08/11 14:29:18;;;;;;;3.03;1.10;;;;;;;;;;5006975;28;20778;-94
2022/08/11 14:31:47;;;;;;;3.30;1.20;;;;;;;;;;5017173;28;20029;-92
2022/08/11 14:34:13;;;;;;;3.55;1.20;;;;;;;;;;5050311;28;20033;-92
2022/08/11 14:36:43;;;;;;;3.92;1.25;;;;;;;;;;5029111;28;20025;-91
2022/08/11 14:39:16;;;;;;;2.92;1.30;;;;;;;;;;5029139;28;20096;-92
2022/08/11 14:47:18;;;;;;;2.92;1.00;;;;;;;;;;5033270;28;20494;-92
2022/08/11 14:49:44;;;;;;;3.47;0.90;;;;;;;;;;5010152;28;20040;-90
2022/08/11 14:52:14;;;;;;;2.05;0.98;;;;;;;;;;5014722;28;20055;-91
2022/08/11 14:57:28;;;;;;;2.47;0.93;;;;;;;;;;5035921;28;20040;-93
2022/08/11 14:59:55;;;;;;;3.05;1.17;;;;;;;;;;5012683;28;20037;-91
2022/08/11 15:05:06;;;;;;;2.72;1.20;;;;;;;;;;5039841;28;20482;-93
2022/08/11 15:07:32;;;;;;;3.08;0.90;;;;;;;;;;5013882;28;20052;-93
2022/08/11 15:09:59;;;;;;;2.65;1.00;;;;;;;;;;4999916;28;20042;-94
2022/08/11 15:12:28;;;;;;;3.30;1.00;;;;;;;;;;5028112;28;20041;-93
2022/08/11 15:17:39;;;;;;;2.88;0.88;;;;;;;;;;5032287;28;20123;-93
2022/08/11 15:25:42;;;;;;;5.45;0.98;;;;;;;;;;5031453;28;20063;-89
2022/08/11 15:45:46;;;;;;;2.35;0.93;;;;;;;;;;5024145;28;20047;-85
2022/08/11 15:48:02;;;;;;;5.72;0.93;;;;;;;;;;5023440;28;20059;-86
2022/08/11 15:50:30;;;;;;;3.80;0.70;;;;;;;;;;5017036;28;20034;-85
2022/08/11 15:52:59;;;;;;;3.30;0.80;;;;;;;;;;5023554;28;20044;-87
2022/08/11 15:55:25;;;;;;;2.72;0.90;;;;;;;;;;5003657;28;20033;-86
2022/08/11 16:06:07;;;;;;;3.30;0.90;;;;;;;;;;5024753;28;20040;-86
2022/08/11 16:08:33;;;;;;;3.17;0.90;;;;;;;;;;4992884;28;20038;-86
2022/08/11 16:10:59;;;;;;;2.70;0.90;;;;;;;;;;5007693;28;20538;-86
2022/08/11 16:16:14;;;;;;;2.50;0.77;;;;;;;;;;5023758;28;20128;-86
2022/08/11 16:18:52;;;;;;;1.70;0.70;;;;;;;;;;5023639;28;20551;-86
2022/08/11 16:21:33;;;;;;;4.13;0.88;;;;;;;;;;5004160;28;20116;-85
2022/08/11 16:24:01;;;;;;;1.90;0.80;;;;;;;;;;5023755;28;20408;-86
2022/08/11 16:26:27;;;;;;;2.00;0.90;;;;;;;;;;5022320;28;20528;-85
2022/08/11 16:28:55;;;;;;;2.05;0.70;;;;;;;;;;5006229;28;20058;-86
2022/08/11 16:31:22;;;;;;;2.03;0.80;;;;;;;;;;5024068;28;20034;-86
2022/08/11 16:33:48;;;;;;;;;;;;;;;;;;4992564;28;20037;-87
2022/08/11 16:38:58;;;;;;;2.95;1.10;;;;;;;;;;5010508;28;20088;-86
2022/08/11 16:47:00;;;;;;;2.58;0.90;;;;;;;;;;5008992;28;20114;-86
2022/08/11 16:49:29;;;;;;;2.92;0.73;;;;;;;;;;5007901;28;20482;-85
2022/08/11 16:51:55;;;;;;;2.42;0.80;;;;;;;;;;4989787;28;20037;-88
2022/08/11 16:54:20;;;;;;;4.60;0.82;;;;;;;;;;4991626;28;20037;-85
2022/08/11 16:56:48;;;;;;;3.42;1.40;;;;;;;;;;4991151;28;20089;-87
2022/08/11 16:59:28;;;;;;;3.28;0.73;;;;;;;;;;5008389;28;20409;-85
2022/08/11 17:02:07;;;;;;;2.17;0.70;;;;;;;;;;5006476;28;20037;-86
2022/08/11 17:13:10;;;;;;;1.50;0.63;;;;;;;;;;5010296;28;20039;-84
2022/08/11 17:16:06;;;;;;;3.28;0.50;;;;;;;;;;4992355;28;20052;-91
2022/08/11 17:18:45;;;;;;;2.42;0.80;;;;;;;;;;5008556;28;20038;-88
2022/08/11 17:21:25;;;;;;;2.58;0.77;;;;;;;;;;5007891;28;20033;-89
2022/08/11 17:23:53;;;;;;;1.50;0.60;;;;;;;;;;4987843;28;20065;-91
2022/08/11 17:26:23;;;;;;;2.30;0.70;;;;;;;;;;5008572;28;20116;-91
2022/08/11 17:28:55;;;;;;;2.47;0.60;;;;;;;;;;5010643;28;20064;-91
2022/08/11 17:36:53;;;;;;;2.25;0.70;;;;;;;;;;5011755;28;20033;-90
2022/08/11 17:39:20;;;;;;;3.25;0.77;;;;;;;;;;4977060;28;20041;-90
2022/08/11 17:50:02;;;;;;;2.97;1.00;;;;;;;;;;5007623;28;20049;-87
2022/08/11 18:00:47;;;;;;;2.75;0.90;;;;;;;;;;5000126;28;20117;-87
2022/08/11 18:03:28;;;;;;;2.20;0.68;;;;;;;;;;4997129;28;20044;-86
2022/08/11 18:05:55;;;;;;;1.75;0.70;;;;;;;;;;4996261;28;20030;-96
